sensor_id;sensor_type;location;lat;lon;timestamp;pressure;altitude;pressure_sealevel;temperature;humidity
68793;BME280;55778;54.346;10.210;2023-03-05T00:01:05;101136.97;;;1.41;83.71
68793;BME280;55778;54.346;10.210;2023-03-05T00:03:30;101120.84;;;1.41;82.91
68793;BME280;55778;54.346;10.210;2023-03-05T00:05:56;101133.81;;;1.50;81.57
68793;BME280;55778;54.346;10.210;2023-03-05T00:08:21;101136.19;;;1.56;81.06
68793;BME280;55778;54.346;10.210;2023-03-05T00:10:57;101133.81;;;1.50;81.32
68793;BME280;55778;54.346;10.210;2023-03-05T00:13:24;101125.16;;;1.45;80.97
68793;BME280;55778;54.346;10.210;2023-03-05T00:15:49;101118.34;;;1.55;79.75
68793;BME280;55778;54.346;10.210;2023-03-05T00:18:15;101120.63;;;1.46;80.13
68793;BME280;55778;54.346;10.210;2023-03-05T00:20:40;101125.91;;;1.47;80.01
68793;BME280;55778;54.346;10.210;2023-03-05T00:23:05;101115.66;;;1.55;78.93
68793;BME280;55778;54.346;10.210;2023-03-05T00:25:34;101109.00;;;1.62;77.47
68793;BME280;55778;54.346;10.210;2023-03-05T00:28:00;101106.41;;;1.61;77.36
68793;BME280;55778;54.346;10.210;2023-03-05T00:30:26;101100.63;;;1.68;76.04
68793;BME280;55778;54.346;10.210;2023-03-05T00:32:51;101110.72;;;1.63;76.38
68793;BME280;55778;54.346;10.210;2023-03-05T00:35:16;101106.22;;;1.64;76.36
68793;BME280;55778;54.346;10.210;2023-03-05T00:37:42;101106.16;;;1.65;75.73
68793;BME280;55778;54.346;10.210;2023-03-05T00:40:08;101099.50;;;1.72;75.10
68793;BME280;55778;54.346;10.210;2023-03-05T00:42:33;101099.50;;;1.72;75.21
68793;BME280;55778;54.346;10.210;2023-03-05T00:45:06;101100.53;;;1.70;75.13
68793;BME280;55778;54.346;10.210;2023-03-05T00:47:31;101095.00;;;1.73;75.22
68793;BME280;55778;54.346;10.210;2023-03-05T00:49:57;101092.31;;;1.73;74.81
68793;BME280;55778;54.346;10.210;2023-03-05T00:52:22;101090.44;;;1.75;74.83
68793;BME280;55778;54.346;10.210;2023-03-05T00:54:48;101085.06;;;1.75;74.46
68793;BME280;55778;54.346;10.210;2023-03-05T00:57:13;101080.84;;;1.69;74.82
68793;BME280;55778;54.346;10.210;2023-03-05T00:59:39;101088.47;;;1.61;75.48
68793;BME280;55778;54.346;10.210;2023-03-05T01:02:04;101070.34;;;1.65;75.12
68793;BME280;55778;54.346;10.210;2023-03-05T01:04:30;101070.59;;;1.60;75.27
68793;BME280;55778;54.346;10.210;2023-03-05T01:06:55;101071.16;;;1.67;75.08
68793;BME280;55778;54.346;10.210;2023-03-05T01:09:21;101070.34;;;1.65;75.04
68793;BME280;55778;54.346;10.210;2023-03-05T01:11:49;101066.91;;;1.63;75.22
68793;BME280;55778;54.346;10.210;2023-03-05T01:14:15;101067.22;;;1.57;75.72
68793;BME280;55778;54.346;10.210;2023-03-05T01:16:40;101059.19;;;1.57;75.80
68793;BME280;55778;54.346;10.210;2023-03-05T01:19:05;101054.91;;;1.53;75.86
68793;BME280;55778;54.346;10.210;2023-03-05T01:21:31;101055.38;;;1.61;75.06
68793;BME280;55778;54.346;10.210;2023-03-05T01:23:56;101062.38;;;1.63;74.73
68793;BME280;55778;54.346;10.210;2023-03-05T01:26:22;101052.28;;;1.51;75.42
68793;BME280;55778;54.346;10.210;2023-03-05T01:28:48;101052.13;;;1.54;75.22
68793;BME280;55778;54.346;10.210;2023-03-05T01:31:13;101054.28;;;1.48;75.91
68793;BME280;55778;54.346;10.210;2023-03-05T01:33:38;101051.13;;;1.40;76.17
68793;BME280;55778;54.346;10.210;2023-03-05T01:36:09;101036.63;;;1.44;75.95
68793;BME280;55778;54.346;10.210;2023-03-05T01:38:36;101048.38;;;1.41;75.67
68793;BME280;55778;54.346;10.210;2023-03-05T01:41:02;101046.31;;;1.29;76.42
68793;BME280;55778;54.346;10.210;2023-03-05T01:43:29;101043.81;;;1.26;76.48
68793;BME280;55778;54.346;10.210;2023-03-05T01:46:30;101045.09;;;1.19;76.77
68793;BME280;55778;54.346;10.210;2023-03-05T01:49:06;101044.75;;;1.25;75.95
68793;BME280;55778;54.346;10.210;2023-03-05T01:54:32;101041.13;;;1.26;75.46
68793;BME280;55778;54.346;10.210;2023-03-05T01:57:00;101035.38;;;1.17;76.01
68793;BME280;55778;54.346;10.210;2023-03-05T01:59:29;101031.09;;;1.13;76.02
68793;BME280;55778;54.346;10.210;2023-03-05T02:01:56;101026.63;;;1.13;76.03
68793;BME280;55778;54.346;10.210;2023-03-05T02:04:28;101026.00;;;1.08;76.26
68793;BME280;55778;54.346;10.210;2023-03-05T02:06:55;101023.47;;;1.05;75.72
68793;BME280;55778;54.346;10.210;2023-03-05T02:09:20;101027.88;;;1.06;75.81
68793;BME280;55778;54.346;10.210;2023-03-05T02:11:48;101020.97;;;1.02;75.96
68793;BME280;55778;54.346;10.210;2023-03-05T02:14:13;101019.38;;;0.98;76.35
68793;BME280;55778;54.346;10.210;2023-03-05T02:16:39;101020.09;;;1.02;76.12
68793;BME280;55778;54.346;10.210;2023-03-05T02:19:09;101019.13;;;1.03;75.71
68793;BME280;55778;54.346;10.210;2023-03-05T02:21:47;101007.22;;;0.91;76.45
68793;BME280;55778;54.346;10.210;2023-03-05T02:24:33;101013.63;;;0.89;76.62
68793;BME280;55778;54.346;10.210;2023-03-05T02:26:59;101017.31;;;0.86;76.84
68793;BME280;55778;54.346;10.210;2023-03-05T02:29:26;101008.19;;;0.90;76.91
68793;BME280;55778;54.346;10.210;2023-03-05T02:31:53;100997.84;;;0.83;77.12
68793;BME280;55778;54.346;10.210;2023-03-05T02:34:19;100998.59;;;0.85;76.91
68793;BME280;55778;54.346;10.210;2023-03-05T02:36:47;100997.75;;;0.84;76.75
68793;BME280;55778;54.346;10.210;2023-03-05T02:39:15;101003.28;;;0.81;77.16
68793;BME280;55778;54.346;10.210;2023-03-05T02:41:40;100998.22;;;0.75;77.49
68793;BME280;55778;54.346;10.210;2023-03-05T02:44:06;101001.28;;;0.85;77.10
68793;BME280;55778;54.346;10.210;2023-03-05T02:46:31;101000.44;;;0.84;77.33
68793;BME280;55778;54.346;10.210;2023-03-05T02:48:56;100993.63;;;0.77;77.48
68793;BME280;55778;54.346;10.210;2023-03-05T02:51:22;100988.84;;;0.84;77.37
68793;BME280;55778;54.346;10.210;2023-03-05T02:53:47;100990.78;;;0.80;77.56
68793;BME280;55778;54.346;10.210;2023-03-05T02:56:13;100982.44;;;0.86;76.91
68793;BME280;55778;54.346;10.210;2023-03-05T02:58:38;100984.03;;;0.73;77.87
68793;BME280;55778;54.346;10.210;2023-03-05T03:01:04;100985.28;;;0.83;77.28
68793;BME280;55778;54.346;10.210;2023-03-05T03:03:29;100979.63;;;0.72;78.16
68793;BME280;55778;54.346;10.210;2023-03-05T03:05:55;100974.56;;;0.66;78.70
68793;BME280;55778;54.346;10.210;2023-03-05T03:08:20;100975.91;;;0.75;78.14
68793;BME280;55778;54.346;10.210;2023-03-05T03:10:45;100970.84;;;0.69;78.37
68793;BME280;55778;54.346;10.210;2023-03-05T03:13:11;100963.59;;;0.71;78.07
68793;BME280;55778;54.346;10.210;2023-03-05T03:15:36;100962.97;;;0.83;77.58
68793;BME280;55778;54.346;10.210;2023-03-05T03:18:03;100959.81;;;0.75;78.24
68793;BME280;55778;54.346;10.210;2023-03-05T03:20:29;100955.47;;;0.72;78.50
68793;BME280;55778;54.346;10.210;2023-03-05T03:22:54;100960.38;;;0.81;78.53
68793;BME280;55778;54.346;10.210;2023-03-05T03:25:21;100956.16;;;0.76;78.56
68793;BME280;55778;54.346;10.210;2023-03-05T03:27:47;100952.81;;;0.72;78.75
68793;BME280;55778;54.346;10.210;2023-03-05T03:30:13;100954.44;;;0.75;78.54
68793;BME280;55778;54.346;10.210;2023-03-05T03:32:39;100944.44;;;0.78;78.40
68793;BME280;55778;54.346;10.210;2023-03-05T03:35:05;100949.72;;;0.80;78.68
68793;BME280;55778;54.346;10.210;2023-03-05T03:37:31;100945.91;;;0.84;78.70
68793;BME280;55778;54.346;10.210;2023-03-05T03:39:56;100940.06;;;0.76;78.97
68793;BME280;55778;54.346;10.210;2023-03-05T03:42:22;100935.66;;;0.92;77.73
68793;BME280;55778;54.346;10.210;2023-03-05T03:44:48;100936.00;;;0.86;78.37
68793;BME280;55778;54.346;10.210;2023-03-05T03:47:14;100933.22;;;0.87;78.46
68793;BME280;55778;54.346;10.210;2023-03-05T03:49:40;100917.31;;;0.84;78.72
68793;BME280;55778;54.346;10.210;2023-03-05T03:52:05;100920.91;;;0.83;78.80
68793;BME280;55778;54.346;10.210;2023-03-05T03:54:31;100922.66;;;0.84;78.49
68793;BME280;55778;54.346;10.210;2023-03-05T03:56:56;100916.75;;;0.78;79.27
68793;BME280;55778;54.346;10.210;2023-03-05T03:59:22;100913.50;;;0.88;78.58
68793;BME280;55778;54.346;10.210;2023-03-05T04:01:47;100916.34;;;0.85;78.54
68793;BME280;55778;54.346;10.210;2023-03-05T04:04:13;100919.75;;;0.89;78.60
68793;BME280;55778;54.346;10.210;2023-03-05T04:06:38;100911.44;;;0.93;78.67
68793;BME280;55778;54.346;10.210;2023-03-05T04:09:04;100912.38;;;0.92;78.81
68793;BME280;55778;54.346;10.210;2023-03-05T04:11:30;100903.41;;;0.93;78.59
68793;BME280;55778;54.346;10.210;2023-03-05T04:13:55;100906.16;;;0.92;78.78
68793;BME280;55778;54.346;10.210;2023-03-05T04:16:21;100897.16;;;0.93;78.83
68793;BME280;55778;54.346;10.210;2023-03-05T04:18:46;100891.94;;;0.90;78.81
68793;BME280;55778;54.346;10.210;2023-03-05T04:21:12;100897.06;;;0.94;78.79
68793;BME280;55778;54.346;10.210;2023-03-05T04:23:37;100886.91;;;0.84;79.23
68793;BME280;55778;54.346;10.210;2023-03-05T04:26:03;100890.47;;;0.84;79.59
68793;BME280;55778;54.346;10.210;2023-03-05T04:28:30;100885.34;;;0.80;79.86
68793;BME280;55778;54.346;10.210;2023-03-05T04:30:55;100881.16;;;0.74;80.92
68793;BME280;55778;54.346;10.210;2023-03-05T04:33:21;100883.06;;;0.72;81.75
68793;BME280;55778;54.346;10.210;2023-03-05T04:35:46;100884.13;;;0.70;83.44
68793;BME280;55778;54.346;10.210;2023-03-05T04:38:12;100878.84;;;0.68;84.98
68793;BME280;55778;54.346;10.210;2023-03-05T04:40:37;100882.84;;;0.60;86.32
68793;BME280;55778;54.346;10.210;2023-03-05T04:43:04;100891.84;;;0.59;87.76
68793;BME280;55778;54.346;10.210;2023-03-05T04:45:29;100893.66;;;0.58;88.75
68793;BME280;55778;54.346;10.210;2023-03-05T04:47:55;100883.16;;;0.54;90.62
68793;BME280;55778;54.346;10.210;2023-03-05T04:50:20;100883.16;;;0.54;91.54
68793;BME280;55778;54.346;10.210;2023-03-05T04:52:46;100879.97;;;0.47;93.13
68793;BME280;55778;54.346;10.210;2023-03-05T04:55:13;100886.88;;;0.51;93.79
68793;BME280;55778;54.346;10.210;2023-03-05T04:57:40;100876.47;;;0.45;94.40
68793;BME280;55778;54.346;10.210;2023-03-05T05:00:08;100870.97;;;0.48;95.35
68793;BME280;55778;54.346;10.210;2023-03-05T05:02:42;100877.28;;;0.47;95.68
68793;BME280;55778;54.346;10.210;2023-03-05T05:05:09;100871.84;;;0.49;95.59
68793;BME280;55778;54.346;10.210;2023-03-05T05:07:36;100873.72;;;0.47;96.26
68793;BME280;55778;54.346;10.210;2023-03-05T05:10:02;100868.34;;;0.47;96.16
68793;BME280;55778;54.346;10.210;2023-03-05T05:12:29;100858.75;;;0.43;96.56
68793;BME280;55778;54.346;10.210;2023-03-05T05:14:56;100863.63;;;0.35;96.99
68793;BME280;55778;54.346;10.210;2023-03-05T05:17:22;100868.81;;;0.38;96.79
68793;BME280;55778;54.346;10.210;2023-03-05T05:19:47;100862.94;;;0.31;97.30
68793;BME280;55778;54.346;10.210;2023-03-05T05:22:13;100862.44;;;0.23;97.84
68793;BME280;55778;54.346;10.210;2023-03-05T05:24:38;100860.16;;;0.16;98.10
68793;BME280;55778;54.346;10.210;2023-03-05T05:27:04;100860.97;;;0.18;98.02
68793;BME280;55778;54.346;10.210;2023-03-05T05:29:29;100852.78;;;0.21;98.01
68793;BME280;55778;54.346;10.210;2023-03-05T05:31:55;100844.25;;;0.30;97.07
68793;BME280;55778;54.346;10.210;2023-03-05T05:34:21;100846.69;;;0.34;96.69
68793;BME280;55778;54.346;10.210;2023-03-05T05:36:49;100840.78;;;0.28;96.83
68793;BME280;55778;54.346;10.210;2023-03-05T05:39:14;100842.81;;;0.23;97.20
68793;BME280;55778;54.346;10.210;2023-03-05T05:41:40;100842.13;;;0.19;97.35
68793;BME280;55778;54.346;10.210;2023-03-05T05:44:05;100841.09;;;0.22;97.23
68793;BME280;55778;54.346;10.210;2023-03-05T05:46:30;100838.50;;;0.20;97.13
68793;BME280;55778;54.346;10.210;2023-03-05T05:48:56;100837.84;;;0.15;96.59
68793;BME280;55778;54.346;10.210;2023-03-05T05:51:22;100843.53;;;0.09;97.18
68793;BME280;55778;54.346;10.210;2023-03-05T05:53:48;100840.63;;;0.14;96.90
68793;BME280;55778;54.346;10.210;2023-03-05T05:56:14;100843.06;;;0.01;97.63
68793;BME280;55778;54.346;10.210;2023-03-05T05:58:44;100831.63;;;-0.03;97.74
68793;BME280;55778;54.346;10.210;2023-03-05T06:01:21;100829.56;;;-0.15;98.53
68793;BME280;55778;54.346;10.210;2023-03-05T06:03:47;100823.28;;;-0.14;98.98
68793;BME280;55778;54.346;10.210;2023-03-05T06:06:15;100832.31;;;-0.16;99.48
68793;BME280;55778;54.346;10.210;2023-03-05T06:08:41;100834.53;;;-0.07;98.80
68793;BME280;55778;54.346;10.210;2023-03-05T06:11:07;100836.13;;;-0.03;98.66
68793;BME280;55778;54.346;10.210;2023-03-05T06:13:34;100843.53;;;-0.08;99.24
68793;BME280;55778;54.346;10.210;2023-03-05T06:16:03;100847.00;;;-0.06;99.40
68793;BME280;55778;54.346;10.210;2023-03-05T06:18:29;100837.91;;;-0.21;99.61
68793;BME280;55778;54.346;10.210;2023-03-05T06:21:00;100843.91;;;-0.16;100.00
68793;BME280;55778;54.346;10.210;2023-03-05T06:23:27;100842.13;;;-0.15;100.00
68793;BME280;55778;54.346;10.210;2023-03-05T06:25:53;100841.72;;;-0.08;99.87
68793;BME280;55778;54.346;10.210;2023-03-05T06:28:19;100848.72;;;-0.05;99.63
68793;BME280;55778;54.346;10.210;2023-03-05T06:30:44;100846.84;;;-0.03;99.64
68793;BME280;55778;54.346;10.210;2023-03-05T06:33:10;100842.34;;;-0.03;99.67
68793;BME280;55778;54.346;10.210;2023-03-05T06:35:37;100846.19;;;0.09;99.18
68793;BME280;55778;54.346;10.210;2023-03-05T06:38:03;100849.44;;;0.16;98.87
68793;BME280;55778;54.346;10.210;2023-03-05T06:40:29;100847.34;;;0.22;98.07
68793;BME280;55778;54.346;10.210;2023-03-05T06:42:54;100851.56;;;0.26;97.48
68793;BME280;55778;54.346;10.210;2023-03-05T06:45:19;100852.06;;;0.34;96.12
68793;BME280;55778;54.346;10.210;2023-03-05T06:47:45;100853.31;;;0.44;94.97
68793;BME280;55778;54.346;10.210;2023-03-05T06:50:10;100842.19;;;0.52;93.70
68793;BME280;55778;54.346;10.210;2023-03-05T06:52:36;100840.91;;;0.59;93.09
68793;BME280;55778;54.346;10.210;2023-03-05T06:55:04;100844.75;;;0.70;92.73
68793;BME280;55778;54.346;10.210;2023-03-05T06:57:30;100842.94;;;0.71;91.98
68793;BME280;55778;54.346;10.210;2023-03-05T06:59:55;100854.00;;;0.80;92.29
68793;BME280;55778;54.346;10.210;2023-03-05T07:02:21;100852.34;;;0.95;91.50
68793;BME280;55778;54.346;10.210;2023-03-05T07:04:46;100845.22;;;0.94;91.03
68793;BME280;55778;54.346;10.210;2023-03-05T07:07:11;100849.75;;;0.93;90.98
68793;BME280;55778;54.346;10.210;2023-03-05T07:09:37;100850.31;;;1.15;89.33
68793;BME280;55778;54.346;10.210;2023-03-05T07:12:08;100839.19;;;1.06;89.46
68793;BME280;55778;54.346;10.210;2023-03-05T07:14:35;100836.19;;;1.12;88.99
68793;BME280;55778;54.346;10.210;2023-03-05T07:17:01;100842.50;;;1.26;88.58
68793;BME280;55778;54.346;10.210;2023-03-05T07:19:26;100831.69;;;1.12;87.93
68793;BME280;55778;54.346;10.210;2023-03-05T07:21:51;100837.75;;;1.31;87.85
68793;BME280;55778;54.346;10.210;2023-03-05T07:24:17;100833.09;;;1.35;87.29
68793;BME280;55778;54.346;10.210;2023-03-05T07:26:42;100834.22;;;1.46;85.94
68793;BME280;55778;54.346;10.210;2023-03-05T07:29:08;100830.47;;;1.64;85.04
68793;BME280;55778;54.346;10.210;2023-03-05T07:31:33;100832.88;;;1.84;84.45
68793;BME280;55778;54.346;10.210;2023-03-05T07:34:00;100824.94;;;1.67;83.06
68793;BME280;55778;54.346;10.210;2023-03-05T07:36:26;100838.56;;;1.94;80.88
68793;BME280;55778;54.346;10.210;2023-03-05T07:38:51;100833.34;;;2.06;80.27
68793;BME280;55778;54.346;10.210;2023-03-05T07:41:19;100826.16;;;2.21;79.56
68793;BME280;55778;54.346;10.210;2023-03-05T07:43:47;100826.66;;;2.14;77.81
68793;BME280;55778;54.346;10.210;2023-03-05T07:46:15;100826.16;;;1.91;77.35
68793;BME280;55778;54.346;10.210;2023-03-05T07:48:44;100834.09;;;1.79;77.68
68793;BME280;55778;54.346;10.210;2023-03-05T07:51:15;100813.13;;;1.70;78.30
68793;BME280;55778;54.346;10.210;2023-03-05T07:53:42;100832.03;;;1.68;78.01
68793;BME280;55778;54.346;10.210;2023-03-05T07:56:07;100825.78;;;1.83;77.37
68793;BME280;55778;54.346;10.210;2023-03-05T07:58:33;100823.69;;;1.73;75.46
68793;BME280;55778;54.346;10.210;2023-03-05T08:00:59;100826.47;;;1.71;75.83
68793;BME280;55778;54.346;10.210;2023-03-05T08:03:24;100827.84;;;1.78;75.17
68793;BME280;55778;54.346;10.210;2023-03-05T08:05:50;100829.09;;;2.02;74.59
68793;BME280;55778;54.346;10.210;2023-03-05T08:08:15;100826.88;;;2.25;73.33
68793;BME280;55778;54.346;10.210;2023-03-05T08:10:43;100823.47;;;2.21;73.42
68793;BME280;55778;54.346;10.210;2023-03-05T08:13:09;100817.84;;;1.96;73.47
68793;BME280;55778;54.346;10.210;2023-03-05T08:15:36;100827.19;;;1.75;73.47
68793;BME280;55778;54.346;10.210;2023-03-05T08:18:01;100818.16;;;1.76;72.23
68793;BME280;55778;54.346;10.210;2023-03-05T08:20:27;100820.41;;;2.13;72.62
68793;BME280;55778;54.346;10.210;2023-03-05T08:22:52;100809.22;;;2.35;71.51
68793;BME280;55778;54.346;10.210;2023-03-05T08:25:18;100812.91;;;2.62;70.78
68793;BME280;55778;54.346;10.210;2023-03-05T08:27:45;100814.88;;;2.88;70.27
68793;BME280;55778;54.346;10.210;2023-03-05T08:30:18;100812.72;;;2.93;69.30
68793;BME280;55778;54.346;10.210;2023-03-05T08:32:50;100813.97;;;2.73;68.58
68793;BME280;55778;54.346;10.210;2023-03-05T08:35:15;100806.88;;;2.86;68.69
68793;BME280;55778;54.346;10.210;2023-03-05T08:37:41;100809.66;;;3.13;67.30
68793;BME280;55778;54.346;10.210;2023-03-05T08:40:06;100807.34;;;3.07;65.08
68793;BME280;55778;54.346;10.210;2023-03-05T08:42:32;100807.84;;;2.99;65.67
68793;BME280;55778;54.346;10.210;2023-03-05T08:44:57;100804.47;;;3.10;64.51
68793;BME280;55778;54.346;10.210;2023-03-05T08:47:23;100801.25;;;3.31;64.53
68793;BME280;55778;54.346;10.210;2023-03-05T08:49:50;100799.22;;;3.35;65.16
68793;BME280;55778;54.346;10.210;2023-03-05T08:52:20;100790.25;;;3.48;64.33
68793;BME280;55778;54.346;10.210;2023-03-05T08:54:46;100795.44;;;3.78;62.93
68793;BME280;55778;54.346;10.210;2023-03-05T08:57:12;100793.34;;;3.28;63.54
68793;BME280;55778;54.346;10.210;2023-03-05T08:59:37;100788.84;;;3.15;61.75
68793;BME280;55778;54.346;10.210;2023-03-05T09:02:03;100792.72;;;3.25;62.30
68793;BME280;55778;54.346;10.210;2023-03-05T09:04:28;100787.69;;;3.33;62.51
68793;BME280;55778;54.346;10.210;2023-03-05T09:06:54;100784.06;;;3.20;61.69
68793;BME280;55778;54.346;10.210;2023-03-05T09:09:19;100783.59;;;3.40;60.74
68793;BME280;55778;54.346;10.210;2023-03-05T09:11:45;100783.19;;;3.19;61.03
68793;BME280;55778;54.346;10.210;2023-03-05T09:14:11;100775.50;;;3.13;61.45
68793;BME280;55778;54.346;10.210;2023-03-05T09:16:37;100776.59;;;3.37;62.05
68793;BME280;55778;54.346;10.210;2023-03-05T09:19:05;100773.56;;;3.29;60.98
68793;BME280;55778;54.346;10.210;2023-03-05T09:21:33;100773.41;;;3.45;61.40
68793;BME280;55778;54.346;10.210;2023-03-05T09:23:58;100779.63;;;3.59;61.63
68793;BME280;55778;54.346;10.210;2023-03-05T09:26:24;100781.66;;;3.56;62.36
68793;BME280;55778;54.346;10.210;2023-03-05T09:28:50;100774.88;;;3.89;61.47
68793;BME280;55778;54.346;10.210;2023-03-05T09:31:16;100770.81;;;3.70;60.89
68793;BME280;55778;54.346;10.210;2023-03-05T09:33:42;100764.94;;;3.51;61.56
68793;BME280;55778;54.346;10.210;2023-03-05T09:36:18;100768.50;;;3.90;60.35
68793;BME280;55778;54.346;10.210;2023-03-05T09:38:47;100766.09;;;3.73;60.27
68793;BME280;55778;54.346;10.210;2023-03-05T09:41:17;100762.59;;;3.85;60.55
68793;BME280;55778;54.346;10.210;2023-03-05T09:44:28;100748.78;;;3.51;60.83
68793;BME280;55778;54.346;10.210;2023-03-05T09:50:04;100764.16;;;4.14;58.70
68793;BME280;55778;54.346;10.210;2023-03-05T09:52:49;100761.75;;;3.97;58.75
68793;BME280;55778;54.346;10.210;2023-03-05T09:55:26;100761.00;;;4.08;58.37
68793;BME280;55778;54.346;10.210;2023-03-05T09:57:57;100759.06;;;3.71;58.94
68793;BME280;55778;54.346;10.210;2023-03-05T10:03:05;100753.53;;;3.60;61.09
68793;BME280;55778;54.346;10.210;2023-03-05T10:06:05;100759.97;;;3.31;61.10
68793;BME280;55778;54.346;10.210;2023-03-05T10:08:54;100753.41;;;2.94;61.36
68793;BME280;55778;54.346;10.210;2023-03-05T10:11:35;100751.94;;;3.17;60.85
68793;BME280;55778;54.346;10.210;2023-03-05T10:14:02;100755.66;;;3.28;60.77
68793;BME280;55778;54.346;10.210;2023-03-05T10:16:43;100755.03;;;3.25;59.99
68793;BME280;55778;54.346;10.210;2023-03-05T10:21:52;100746.56;;;3.17;61.40
68793;BME280;55778;54.346;10.210;2023-03-05T10:32:41;100738.53;;;2.89;59.14
68793;BME280;55778;54.346;10.210;2023-03-05T10:40:51;100727.63;;;3.04;61.78
68793;BME280;55778;54.346;10.210;2023-03-05T10:43:46;100730.41;;;3.17;63.14
68793;BME280;55778;54.346;10.210;2023-03-05T10:46:17;100727.88;;;3.28;63.39
68793;BME280;55778;54.346;10.210;2023-03-05T10:49:14;100722.59;;;3.26;61.60
68793;BME280;55778;54.346;10.210;2023-03-05T10:51:53;100713.78;;;4.15;58.44
68793;BME280;55778;54.346;10.210;2023-03-05T10:56:49;100708.41;;;4.40;55.70
68793;BME280;55778;54.346;10.210;2023-03-05T10:59:14;100694.53;;;3.82;57.39
68793;BME280;55778;54.346;10.210;2023-03-05T11:01:40;100701.25;;;3.50;59.07
68793;BME280;55778;54.346;10.210;2023-03-05T11:04:11;100702.06;;;3.38;59.65
68793;BME280;55778;54.346;10.210;2023-03-05T11:06:49;100700.88;;;3.68;59.38
68793;BME280;55778;54.346;10.210;2023-03-05T11:09:15;100696.59;;;4.03;57.24
68793;BME280;55778;54.346;10.210;2023-03-05T11:11:43;100701.78;;;3.94;58.24
68793;BME280;55778;54.346;10.210;2023-03-05T11:14:25;100690.13;;;3.93;58.09
68793;BME280;55778;54.346;10.210;2023-03-05T11:17:02;100691.44;;;4.13;57.63
68793;BME280;55778;54.346;10.210;2023-03-05T11:19:29;100698.00;;;3.45;56.85
68793;BME280;55778;54.346;10.210;2023-03-05T11:22:16;100690.91;;;3.56;57.74
68793;BME280;55778;54.346;10.210;2023-03-05T11:24:44;100686.25;;;3.46;57.14
68793;BME280;55778;54.346;10.210;2023-03-05T11:27:31;100684.59;;;3.70;57.84
68793;BME280;55778;54.346;10.210;2023-03-05T11:30:01;100689.19;;;3.94;58.80
68793;BME280;55778;54.346;10.210;2023-03-05T11:32:28;100685.06;;;3.76;58.58
68793;BME280;55778;54.346;10.210;2023-03-05T11:34:55;100674.53;;;3.47;59.56
68793;BME280;55778;54.346;10.210;2023-03-05T11:37:23;100678.78;;;3.37;56.75
68793;BME280;55778;54.346;10.210;2023-03-05T11:40:13;100671.06;;;3.45;56.97
68793;BME280;55778;54.346;10.210;2023-03-05T11:42:39;100680.63;;;3.36;57.12
68793;BME280;55778;54.346;10.210;2023-03-05T11:45:13;100671.47;;;3.39;56.70
68793;BME280;55778;54.346;10.210;2023-03-05T11:47:51;100671.25;;;3.29;57.36
68793;BME280;55778;54.346;10.210;2023-03-05T11:50:31;100670.81;;;3.35;58.07
68793;BME280;55778;54.346;10.210;2023-03-05T11:53:01;100657.63;;;3.57;58.40
68793;BME280;55778;54.346;10.210;2023-03-05T12:00:44;100660.22;;;3.59;58.28
68793;BME280;55778;54.346;10.210;2023-03-05T12:03:14;100651.28;;;3.58;58.79
68793;BME280;55778;54.346;10.210;2023-03-05T12:05:44;100640.72;;;3.55;57.87
68793;BME280;55778;54.346;10.210;2023-03-05T12:08:14;100643.34;;;3.30;57.28
68793;BME280;55778;54.346;10.210;2023-03-05T12:10:45;100640.75;;;3.29;58.69
68793;BME280;55778;54.346;10.210;2023-03-05T12:13:13;100638.25;;;3.26;57.30
68793;BME280;55778;54.346;10.210;2023-03-05T12:16:17;100632.09;;;3.24;57.02
68793;BME280;55778;54.346;10.210;2023-03-05T12:18:51;100625.59;;;3.40;56.96
68793;BME280;55778;54.346;10.210;2023-03-05T12:23:55;100623.16;;;3.50;57.77
68793;BME280;55778;54.346;10.210;2023-03-05T12:29:29;100625.41;;;3.68;59.86
68793;BME280;55778;54.346;10.210;2023-03-05T12:31:56;100614.34;;;3.34;61.95
68793;BME280;55778;54.346;10.210;2023-03-05T12:37:11;100623.09;;;3.25;64.55
68793;BME280;55778;54.346;10.210;2023-03-05T12:47:37;100660.13;;;1.09;90.56
68793;BME280;55778;54.346;10.210;2023-03-05T12:50:04;100641.97;;;0.83;98.37
68793;BME280;55778;54.346;10.210;2023-03-05T12:52:32;100637.91;;;0.76;100.00
68793;BME280;55778;54.346;10.210;2023-03-05T12:55:16;100638.63;;;0.80;100.00
68793;BME280;55778;54.346;10.210;2023-03-05T12:57:45;100636.44;;;0.86;100.00
68793;BME280;55778;54.346;10.210;2023-03-05T13:00:30;100636.28;;;0.74;100.00
68793;BME280;55778;54.346;10.210;2023-03-05T13:03:08;100625.28;;;0.63;100.00
68793;BME280;55778;54.346;10.210;2023-03-05T13:05:36;100620.13;;;0.75;100.00
68793;BME280;55778;54.346;10.210;2023-03-05T13:08:23;100619.16;;;0.92;100.00
68793;BME280;55778;54.346;10.210;2023-03-05T13:10:54;100610.56;;;1.30;100.00
68793;BME280;55778;54.346;10.210;2023-03-05T13:13:22;100603.94;;;1.65;100.00
68793;BME280;55778;54.346;10.210;2023-03-05T13:15:50;100606.81;;;1.90;99.99
68793;BME280;55778;54.346;10.210;2023-03-05T13:18:20;100584.66;;;2.01;100.00
68793;BME280;55778;54.346;10.210;2023-03-05T13:20:46;100584.22;;;2.49;98.46
68793;BME280;55778;54.346;10.210;2023-03-05T13:23:49;100587.53;;;2.67;94.23
68793;BME280;55778;54.346;10.210;2023-03-05T13:26:23;100585.31;;;2.33;90.82
68793;BME280;55778;54.346;10.210;2023-03-05T13:29:25;100589.41;;;2.52;90.91
68793;BME280;55778;54.346;10.210;2023-03-05T13:32:09;100571.31;;;2.68;89.25
68793;BME280;55778;54.346;10.210;2023-03-05T13:34:43;100576.47;;;2.71;88.33
68793;BME280;55778;54.346;10.210;2023-03-05T13:37:17;100566.34;;;2.75;83.89
68793;BME280;55778;54.346;10.210;2023-03-05T13:39:52;100559.66;;;2.94;81.82
68793;BME280;55778;54.346;10.210;2023-03-05T13:42:23;100562.72;;;2.76;81.77
68793;BME280;55778;54.346;10.210;2023-03-05T13:45:03;100552.34;;;2.96;75.01
68793;BME280;55778;54.346;10.210;2023-03-05T13:47:34;100539.22;;;3.04;73.03